Time;durP1;ratioP1;P1;durP2;ratioP2;P2;SDS_P1;SDS_P2;PMS_P1;PMS_P2;Temp;Humidity;BMP_temperature;BMP_pressure;BME280_temperature;BME280_humidity;BME280_pressure;Samples;Min_cycle;Max_cycle;Signal;HPM_P1;HPM_P2
2021/03/16 00:01:57;;;;;;;1.25;0.80;;;23.20;29.20;;;;;;5036616;28;20048;-58
2021/03/16 00:04:23;;;;;;;2.45;0.98;;;23.20;29.20;;;;;;5032544;28;20116;-57
2021/03/16 00:07:08;;;;;;;1.77;0.88;;;23.20;29.20;;;;;;5033401;28;20448;-56
2021/03/16 00:09:34;;;;;;;2.75;1.10;;;23.20;29.20;;;;;;5021687;28;20057;-57
2021/03/16 00:12:00;;;;;;;2.00;0.80;;;23.20;29.20;;;;;;5024650;28;20033;-58
2021/03/16 00:14:26;;;;;;;3.08;1.05;;;23.20;29.20;;;;;;5034252;28;20021;-58
2021/03/16 00:16:52;;;;;;;2.65;1.00;;;23.20;29.20;;;;;;5022887;28;20125;-57
2021/03/16 00:19:18;;;;;;;2.45;0.90;;;23.20;29.20;;;;;;5023198;28;20515;-59
2021/03/16 00:21:44;;;;;;;3.08;1.23;;;23.10;29.20;;;;;;5032166;28;20116;-58
2021/03/16 00:24:11;;;;;;;2.53;0.88;;;23.20;29.20;;;;;;5019873;28;20029;-60
2021/03/16 00:26:37;;;;;;;3.80;1.13;;;23.10;29.20;;;;;;5030853;28;20038;-57
2021/03/16 00:29:03;;;;;;;2.45;0.90;;;23.10;29.20;;;;;;5030069;28;20033;-56
2021/03/16 00:31:29;;;;;;;3.08;0.95;;;23.10;29.20;;;;;;5023899;28;20037;-57
2021/03/16 00:33:55;;;;;;;2.97;1.00;;;23.10;29.20;;;;;;5024608;28;20033;-57
2021/03/16 00:36:21;;;;;;;1.85;0.95;;;23.10;29.20;;;;;;5031585;28;20045;-57
2021/03/16 00:38:47;;;;;;;2.15;0.90;;;23.10;29.20;;;;;;5023927;28;20441;-56
2021/03/16 00:41:13;;;;;;;4.05;1.33;;;23.10;29.20;;;;;;5015854;28;20041;-58
2021/03/16 00:43:39;;;;;;;1.73;0.77;;;23.10;29.20;;;;;;5019854;28;20026;-57
2021/03/16 00:46:04;;;;;;;3.40;1.45;;;23.00;29.10;;;;;;5021909;28;20108;-59
2021/03/16 00:48:30;;;;;;;3.47;0.70;;;23.00;29.20;;;;;;5030103;28;20026;-58
2021/03/16 00:50:57;;;;;;;3.25;1.02;;;23.10;29.20;;;;;;5033839;28;20038;-56
2021/03/16 00:53:23;;;;;;;3.85;1.17;;;23.10;29.20;;;;;;5027788;28;20033;-57
2021/03/16 00:55:53;;;;;;;3.13;1.10;;;23.00;29.20;;;;;;4999104;28;20065;-57
2021/03/16 00:58:29;;;;;;;2.72;1.08;;;23.00;29.20;;;;;;5009095;28;20461;-56
2021/03/16 01:00:56;;;;;;;2.63;0.90;;;23.00;29.20;;;;;;5015806;28;20030;-57
2021/03/16 01:03:23;;;;;;;3.17;1.30;;;23.00;29.20;;;;;;5024741;28;20401;-57
2021/03/16 01:05:50;;;;;;;3.00;1.00;;;23.00;29.20;;;;;;5024056;28;20030;-58
2021/03/16 01:08:16;;;;;;;3.75;0.93;;;23.00;29.20;;;;;;5024618;28;20491;-58
2021/03/16 01:10:43;;;;;;;3.28;1.25;;;23.00;29.20;;;;;;5035320;28;20104;-58
2021/03/16 01:13:09;;;;;;;3.53;1.38;;;22.90;29.10;;;;;;5034007;28;20048;-58
2021/03/16 01:15:35;;;;;;;2.63;0.80;;;23.00;29.10;;;;;;5034800;28;20029;-56
2021/03/16 01:18:01;;;;;;;2.13;1.00;;;22.90;29.00;;;;;;5030449;28;20064;-53
2021/03/16 01:20:27;;;;;;;2.72;1.20;;;23.00;29.10;;;;;;5027291;28;20048;-55
2021/03/16 01:22:53;;;;;;;2.95;0.75;;;22.90;29.00;;;;;;5029280;28;20026;-52
2021/03/16 01:25:19;;;;;;;2.63;0.90;;;22.90;29.00;;;;;;5028825;28;20124;-52
2021/03/16 01:27:45;;;;;;;3.60;1.02;;;22.90;29.00;;;;;;5017261;28;20077;-53
2021/03/16 01:30:12;;;;;;;2.50;0.70;;;22.90;29.00;;;;;;5033291;28;20472;-49
2021/03/16 01:32:39;;;;;;;1.65;0.52;;;22.90;28.90;;;;;;5035734;28;20088;-55
2021/03/16 01:35:08;;;;;;;3.50;0.90;;;22.90;28.90;;;;;;5037027;28;20044;-53
2021/03/16 01:37:35;;;;;;;2.08;0.98;;;22.90;28.90;;;;;;5023787;28;20046;-56
2021/03/16 01:40:05;;;;;;;2.67;1.02;;;22.90;28.90;;;;;;5015595;28;20038;-56
2021/03/16 01:42:30;;;;;;;2.28;0.82;;;22.90;28.90;;;;;;5015937;28;20353;-58
2021/03/16 01:44:56;;;;;;;2.30;0.93;;;22.90;28.90;;;;;;5014678;28;20037;-59
2021/03/16 01:47:22;;;;;;;3.15;0.93;;;22.80;28.80;;;;;;5026211;28;20022;-55
2021/03/16 01:49:48;;;;;;;3.17;0.98;;;22.80;28.80;;;;;;5034430;28;20048;-49
2021/03/16 01:52:14;;;;;;;2.13;1.00;;;22.80;28.80;;;;;;5028615;28;20436;-54
2021/03/16 01:54:41;;;;;;;2.70;0.90;;;22.80;28.80;;;;;;5017579;28;20033;-50
2021/03/16 01:57:09;;;;;;;1.98;0.80;;;22.80;28.90;;;;;;5019543;28;20045;-52
2021/03/16 01:59:55;;;;;;;2.90;1.02;;;22.80;28.90;;;;;;5025561;28;20036;-48
2021/03/16 02:02:39;;;;;;;1.88;0.68;;;22.80;28.90;;;;;;5034290;28;20064;-57
2021/03/16 02:05:24;;;;;;;;;;;22.80;28.90;;;;;;5025706;28;20048;-55
2021/03/16 02:08:23;;;;;;;1.75;0.70;;;22.80;28.90;;;;;;5021235;28;19951;-58
2021/03/16 02:11:23;;;;;;;2.60;0.80;;;22.80;28.90;;;;;;5018231;28;20057;-58
2021/03/16 02:14:26;;;;;;;1.67;0.80;;;22.70;28.90;;;;;;5015719;28;20049;-60
2021/03/16 02:17:15;;;;;;;3.75;0.90;;;22.70;29.10;;;;;;5015788;28;20147;-56
2021/03/16 02:20:18;;;;;;;2.17;1.00;;;22.70;28.90;;;;;;5019247;28;20416;-57
2021/03/16 02:23:05;;;;;;;2.22;0.63;;;22.70;28.90;;;;;;5023230;28;20419;-58
2021/03/16 02:26:21;;;;;;;2.42;0.85;;;22.70;28.90;;;;;;5018708;28;20041;-56
2021/03/16 02:29:14;;;;;;;;;;;22.70;28.90;;;;;;4995632;28;20040;-56
2021/03/16 02:32:04;;;;;;;1.48;0.40;;;22.60;28.90;;;;;;5029954;28;19919;-55
2021/03/16 02:35:00;;;;;;;1.73;0.52;;;22.60;28.90;;;;;;5018784;28;20121;-58
2021/03/16 02:37:46;;;;;;;2.85;1.08;;;22.60;28.90;;;;;;5037648;28;20061;-53
2021/03/16 02:40:31;;;;;;;2.78;0.70;;;22.60;28.80;;;;;;5034551;28;20095;-56
2021/03/16 02:43:16;;;;;;;2.60;0.93;;;22.60;28.80;;;;;;5017476;28;20444;-64
2021/03/16 02:46:03;;;;;;;1.88;0.75;;;22.60;28.80;;;;;;5021917;28;20068;-59
2021/03/16 02:48:49;;;;;;;1.88;0.75;;;22.60;28.80;;;;;;5020128;28;20068;-58
2021/03/16 02:51:33;;;;;;;2.33;0.73;;;22.60;28.80;;;;;;5030423;28;20068;-56
2021/03/16 02:54:18;;;;;;;;;;;22.60;28.80;;;;;;5032662;28;20045;-58
2021/03/16 02:57:03;;;;;;;2.25;0.70;;;22.60;28.80;;;;;;5032488;28;19932;-59
2021/03/16 02:59:49;;;;;;;1.92;0.65;;;22.60;28.90;;;;;;5028067;28;20037;-59
2021/03/16 03:02:34;;;;;;;1.95;0.77;;;22.60;28.80;;;;;;5022550;28;20115;-59
2021/03/16 03:05:19;;;;;;;1.90;0.70;;;22.50;28.80;;;;;;5036887;28;20056;-57
2021/03/16 03:08:05;;;;;;;2.30;0.60;;;22.60;28.90;;;;;;5029873;28;20169;-58
2021/03/16 03:10:49;;;;;;;2.55;0.75;;;22.50;28.80;;;;;;5035656;28;20072;-57
2021/03/16 03:13:35;;;;;;;;;;;22.50;28.80;;;;;;5018285;28;20045;-58
2021/03/16 03:16:19;;;;;;;2.42;0.73;;;22.50;28.90;;;;;;5021410;28;19928;-54
2021/03/16 03:19:05;;;;;;;3.05;0.93;;;22.50;28.90;;;;;;5017742;28;20398;-55
2021/03/16 03:21:57;;;;;;;1.42;0.63;;;22.50;28.90;;;;;;5025553;28;20068;-57
2021/03/16 03:25:00;;;;;;;1.98;0.70;;;22.50;28.90;;;;;;5036469;28;20516;-58
2021/03/16 03:27:50;;;;;;;2.38;0.60;;;22.50;28.90;;;;;;5015630;28;20040;-55
2021/03/16 03:30:35;;;;;;;2.50;0.65;;;22.50;28.90;;;;;;5025347;28;20175;-57
2021/03/16 03:33:21;;;;;;;3.28;0.70;;;22.50;28.90;;;;;;5016760;28;20616;-57
2021/03/16 03:36:05;;;;;;;2.78;0.95;;;22.50;28.90;;;;;;5016771;28;20052;-53
2021/03/16 03:38:51;;;;;;;;;;;22.50;28.90;;;;;;5017644;28;20037;-58
2021/03/16 03:41:36;;;;;;;2.72;0.90;;;22.40;28.90;;;;;;5024467;28;19983;-58
2021/03/16 03:44:22;;;;;;;2.42;0.85;;;22.40;28.90;;;;;;5017541;28;20049;-60
2021/03/16 03:47:10;;;;;;;2.58;0.82;;;22.40;28.90;;;;;;5017521;28;20112;-55
2021/03/16 03:49:55;;;;;;;3.95;1.05;;;22.40;28.90;;;;;;5035913;28;20499;-57
2021/03/16 03:52:41;;;;;;;3.20;0.80;;;22.40;28.90;;;;;;5028856;28;20102;-56
2021/03/16 03:55:27;;;;;;;2.08;0.68;;;22.40;28.90;;;;;;5027590;28;20052;-55
2021/03/16 03:58:11;;;;;;;2.05;0.60;;;22.40;28.90;;;;;;5035046;28;20076;-56
2021/03/16 04:00:57;;;;;;;1.67;0.47;;;22.40;28.90;;;;;;5032569;28;20080;-58
2021/03/16 04:03:41;;;;;;;2.80;0.70;;;22.40;28.90;;;;;;5036606;28;20048;-57
2021/03/16 04:06:27;;;;;;;1.45;0.45;;;22.40;28.90;;;;;;5031565;28;20044;-56
2021/03/16 04:09:11;;;;;;;1.02;0.50;;;22.40;28.90;;;;;;5035395;28;20049;-56
2021/03/16 04:11:55;;;;;;;2.00;0.68;;;22.40;28.90;;;;;;5018636;28;20033;-58
2021/03/16 04:14:40;;;;;;;1.52;0.50;;;22.40;28.90;;;;;;5035767;28;20091;-55
2021/03/16 04:17:25;;;;;;;2.38;0.60;;;22.40;28.90;;;;;;5032578;28;20079;-57
2021/03/16 04:20:11;;;;;;;1.85;0.50;;;22.40;28.90;;;;;;5035141;28;20053;-54
2021/03/16 04:22:56;;;;;;;1.77;0.50;;;22.40;29.40;;;;;;5022623;28;20053;-57
2021/03/16 04:25:40;;;;;;;1.98;0.60;;;22.40;28.90;;;;;;5016897;28;20168;-58
2021/03/16 04:28:25;;;;;;;0.90;0.40;;;22.40;28.90;;;;;;5016389;28;20435;-59
2021/03/16 04:31:10;;;;;;;1.75;0.57;;;22.40;28.90;;;;;;5020065;28;20484;-58
2021/03/16 04:33:54;;;;;;;2.33;0.80;;;22.40;29.00;;;;;;5016292;28;20048;-55
2021/03/16 04:36:38;;;;;;;2.60;1.05;;;22.40;28.90;;;;;;5028550;28;20103;-56
2021/03/16 04:39:22;;;;;;;4.57;0.95;;;22.30;28.90;;;;;;5035912;28;20515;-57
2021/03/16 04:42:06;;;;;;;3.33;0.90;;;22.40;29.00;;;;;;5023211;28;20131;-56
2021/03/16 04:44:50;;;;;;;2.05;0.70;;;22.30;29.00;;;;;;5019984;28;20036;-54
2021/03/16 04:47:34;;;;;;;1.70;0.60;;;22.30;29.00;;;;;;5016658;28;20045;-56
2021/03/16 04:50:18;;;;;;;2.67;0.98;;;22.30;29.00;;;;;;5016553;28;20053;-58
2021/03/16 04:53:02;;;;;;;2.15;0.82;;;22.30;29.00;;;;;;5030096;28;20140;-59
2021/03/16 04:55:46;;;;;;;1.67;0.70;;;22.30;29.00;;;;;;5033584;28;20060;-57
2021/03/16 04:58:30;;;;;;;2.60;0.60;;;22.30;29.00;;;;;;5035819;28;20462;-56
2021/03/16 05:01:16;;;;;;;2.80;0.88;;;22.30;29.00;;;;;;5028341;28;20049;-58
2021/03/16 05:04:00;;;;;;;2.22;0.85;;;22.30;29.00;;;;;;5014733;28;20054;-54
2021/03/16 05:06:44;;;;;;;2.42;0.80;;;22.30;29.00;;;;;;5026267;28;20041;-57
2021/03/16 05:09:28;;;;;;;2.58;0.80;;;22.30;29.10;;;;;;5033237;28;20178;-58
2021/03/16 05:12:12;;;;;;;2.25;0.75;;;22.30;29.00;;;;;;5021520;28;20048;-56
2021/03/16 05:14:56;;;;;;;3.10;1.13;;;22.30;29.00;;;;;;5025979;28;20436;-58
2021/03/16 05:17:40;;;;;;;2.33;0.65;;;22.30;29.10;;;;;;5034232;28;20161;-57
2021/03/16 05:20:25;;;;;;;1.80;0.57;;;22.30;29.10;;;;;;5027243;28;20133;-57
2021/03/16 05:23:09;;;;;;;2.58;0.65;;;22.30;29.10;;;;;;5027708;28;20126;-57
2021/03/16 05:25:53;;;;;;;2.20;0.60;;;22.30;29.10;;;;;;5026624;28;20032;-57
2021/03/16 05:28:37;;;;;;;2.30;0.80;;;22.30;29.10;;;;;;5022009;28;20453;-58
2021/03/16 05:31:21;;;;;;;3.10;0.90;;;22.30;29.10;;;;;;5026406;28;20041;-57
2021/03/16 05:34:05;;;;;;;2.42;0.70;;;22.30;29.10;;;;;;5018436;28;20045;-58
2021/03/16 05:36:50;;;;;;;2.95;0.90;;;22.20;29.10;;;;;;5029030;28;20051;-58
2021/03/16 05:39:34;;;;;;;2.35;0.63;;;22.20;29.10;;;;;;5034689;28;20366;-58
2021/03/16 05:42:18;;;;;;;2.85;0.70;;;22.20;29.10;;;;;;5034122;28;20580;-57
2021/03/16 05:45:02;;;;;;;2.08;0.75;;;22.20;29.10;;;;;;5034615;28;20465;-56
2021/03/16 05:47:48;;;;;;;2.88;0.98;;;22.20;29.10;;;;;;5015943;28;20041;-57
2021/03/16 05:50:32;;;;;;;1.88;0.60;;;22.20;29.10;;;;;;5028255;28;20104;-58
2021/03/16 05:53:17;;;;;;;4.93;1.15;;;22.20;29.20;;;;;;5014023;28;20065;-57
2021/03/16 05:56:01;;;;;;;1.83;0.75;;;22.20;29.20;;;;;;5019493;28;20427;-59
2021/03/16 05:58:47;;;;;;;2.55;0.75;;;22.20;29.20;;;;;;5016947;28;20041;-53
2021/03/16 06:01:31;;;;;;;1.52;0.60;;;22.20;29.20;;;;;;5025582;28;20412;-58
2021/03/16 06:04:15;;;;;;;2.25;0.77;;;22.20;29.20;;;;;;5032688;28;20036;-57
2021/03/16 06:07:00;;;;;;;2.47;0.88;;;22.20;29.20;;;;;;5027375;28;20077;-57
2021/03/16 06:09:45;;;;;;;2.60;0.88;;;22.20;29.20;;;;;;5030124;28;20107;-56
2021/03/16 06:12:30;;;;;;;2.30;0.65;;;22.20;29.30;;;;;;5023807;28;20115;-58
2021/03/16 06:15:18;;;;;;;2.92;0.90;;;22.20;29.30;;;;;;5014280;28;20092;-59
2021/03/16 06:18:03;;;;;;;2.33;0.70;;;22.20;29.30;;;;;;5027099;28;20056;-59
2021/03/16 06:20:58;;;;;;;1.83;0.70;;;22.20;29.30;;;;;;5034220;28;20149;-58
2021/03/16 06:23:53;;;;;;;2.88;0.68;;;22.10;29.30;;;;;;5022289;28;20368;-59
2021/03/16 06:26:37;;;;;;;;;;;22.20;29.30;;;;;;5029689;28;20116;-56
2021/03/16 06:29:23;;;;;;;1.92;0.68;;;22.10;29.30;;;;;;5015010;28;19919;-58
2021/03/16 06:32:13;;;;;;;2.28;0.70;;;22.10;29.40;;;;;;5020709;28;20040;-57
2021/03/16 06:35:01;;;;;;;2.00;0.55;;;22.10;29.40;;;;;;5033686;28;20048;-58
2021/03/16 06:38:10;;;;;;;2.95;0.90;;;22.10;29.40;;;;;;5030905;28;20080;-58
2021/03/16 06:41:06;;;;;;;3.13;0.88;;;22.10;29.40;;;;;;4992062;28;20560;-56
2021/03/16 06:43:55;;;;;;;3.03;1.00;;;22.10;29.40;;;;;;4980886;28;20073;-58
2021/03/16 06:46:42;;;;;;;2.45;0.70;;;22.10;29.40;;;;;;4976096;28;20061;-61
2021/03/16 06:49:26;;;;;;;3.30;0.80;;;22.10;29.50;;;;;;4992234;28;20106;-57
2021/03/16 06:52:11;;;;;;;;;;;22.10;29.50;;;;;;4980929;28;20433;-59
2021/03/16 06:54:55;;;;;;;4.03;0.95;;;22.10;29.50;;;;;;4990557;28;19980;-58
2021/03/16 06:57:40;;;;;;;2.60;0.57;;;22.10;29.50;;;;;;4987192;28;20117;-58
2021/03/16 07:00:24;;;;;;;1.80;0.60;;;22.10;29.60;;;;;;4975752;28;20061;-57
2021/03/16 07:03:15;;;;;;;1.63;0.60;;;22.10;29.60;;;;;;4981798;28;20045;-56
2021/03/16 07:06:07;;;;;;;4.78;0.60;;;22.10;29.60;;;;;;4981601;28;20641;-56
2021/03/16 07:08:51;;;;;;;1.65;0.60;;;22.10;29.60;;;;;;4981604;28;20057;-55
2021/03/16 07:11:36;;;;;;;1.30;0.63;;;22.10;29.70;;;;;;4971062;28;20126;-58
2021/03/16 07:14:21;;;;;;;1.45;0.70;;;22.10;29.70;;;;;;4993545;28;20053;-57
2021/03/16 07:17:09;;;;;;;1.90;0.60;;;22.00;29.70;;;;;;4987764;28;20046;-58
2021/03/16 07:19:59;;;;;;;;;;;22.00;29.70;;;;;;5020196;28;20357;-58
2021/03/16 07:22:57;;;;;;;1.63;0.60;;;22.00;29.70;;;;;;5027919;28;20383;-56
2021/03/16 07:25:43;;;;;;;1.63;0.55;;;22.00;29.80;;;;;;5017180;28;20095;-55
2021/03/16 07:28:29;;;;;;;1.88;0.52;;;22.00;29.80;;;;;;5019784;28;20084;-58
2021/03/16 07:31:14;;;;;;;2.38;0.60;;;22.00;29.90;;;;;;5026482;28;20151;-56
2021/03/16 07:34:06;;;;;;;2.05;0.68;;;22.00;29.90;;;;;;5036117;28;20120;-59
2021/03/16 07:36:53;;;;;;;2.05;0.65;;;22.00;29.90;;;;;;5030003;28;20108;-58
2021/03/16 07:39:38;;;;;;;2.75;0.47;;;22.00;29.90;;;;;;5020323;28;20128;-61
2021/03/16 07:42:23;;;;;;;1.60;0.60;;;22.10;30.00;;;;;;5025299;28;20345;-59
2021/03/16 07:45:08;;;;;;;3.08;1.00;;;22.10;30.20;;;;;;5025671;28;20408;-60
2021/03/16 07:47:53;;;;;;;1.30;0.70;;;22.20;30.30;;;;;;5023270;28;20084;-62
2021/03/16 07:50:38;;;;;;;1.73;0.73;;;22.20;30.30;;;;;;5019452;28;20072;-61
2021/03/16 07:53:23;;;;;;;;;;;22.20;30.40;;;;;;5028457;28;20056;-58
2021/03/16 07:56:09;;;;;;;2.53;0.80;;;22.30;30.40;;;;;;5026379;28;19967;-60
2021/03/16 07:58:54;;;;;;;1.85;0.70;;;22.30;30.30;;;;;;5029919;28;20057;-56
2021/03/16 08:01:46;;;;;;;2.35;0.77;;;22.30;30.40;;;;;;5026009;28;20087;-57
2021/03/16 08:04:35;;;;;;;2.58;0.68;;;22.40;30.40;;;;;;5028401;28;20037;-59
2021/03/16 08:07:26;;;;;;;2.65;0.88;;;22.40;30.30;;;;;;5028787;28;20068;-57
2021/03/16 08:10:11;;;;;;;3.08;0.70;;;22.40;30.20;;;;;;5024302;28;20444;-55
2021/03/16 08:13:03;;;;;;;2.00;0.70;;;22.50;30.20;;;;;;5027897;28;20047;-59
2021/03/16 08:15:49;;;;;;;1.58;0.70;;;22.60;30.20;;;;;;5027671;28;20056;-60
2021/03/16 08:18:34;;;;;;;1.58;0.75;;;22.60;30.20;;;;;;5016090;28;20501;-57
2021/03/16 08:21:19;;;;;;;1.92;0.65;;;22.70;30.20;;;;;;5017235;28;20073;-59
2021/03/16 08:24:07;;;;;;;2.75;1.20;;;22.70;30.20;;;;;;5032840;28;20036;-60
2021/03/16 08:26:54;;;;;;;2.83;0.90;;;22.80;30.20;;;;;;5022145;28;20460;-60
2021/03/16 08:29:44;;;;;;;2.70;0.77;;;22.90;30.10;;;;;;5025144;28;20040;-59
2021/03/16 08:32:29;;;;;;;1.75;0.70;;;23.00;30.10;;;;;;5027588;28;20053;-57
2021/03/16 08:35:18;;;;;;;2.30;0.80;;;23.00;30.00;;;;;;5019113;28;20048;-58
2021/03/16 08:38:02;;;;;;;3.17;0.90;;;23.10;30.00;;;;;;5022750;28;20405;-59
2021/03/16 08:40:48;;;;;;;2.97;0.98;;;23.10;29.90;;;;;;5029046;28;20052;-57
2021/03/16 08:43:34;;;;;;;1.80;0.80;;;23.20;29.80;;;;;;5030211;28;20475;-61
2021/03/16 08:46:28;;;;;;;2.22;0.55;;;23.20;29.70;;;;;;5027131;28;20040;-58
2021/03/16 08:49:19;;;;;;;2.20;0.80;;;23.30;29.70;;;;;;5022159;28;20465;-60
2021/03/16 08:52:05;;;;;;;3.33;0.80;;;23.30;29.60;;;;;;5031136;28;20432;-59
2021/03/16 08:54:50;;;;;;;4.03;0.93;;;23.30;29.60;;;;;;5017243;28;20115;-56
2021/03/16 08:57:34;;;;;;;1.25;0.60;;;23.40;29.60;;;;;;5020657;28;20064;-58
2021/03/16 09:00:26;;;;;;;1.02;0.50;;;23.40;29.60;;;;;;5030418;28;20060;-58
2021/03/16 09:03:11;;;;;;;1.52;0.57;;;23.40;29.50;;;;;;5025813;28;20047;-60
2021/03/16 09:05:56;;;;;;;2.25;0.90;;;23.40;29.50;;;;;;5033644;28;20114;-61
2021/03/16 09:08:42;;;;;;;1.85;0.43;;;23.40;29.40;;;;;;5034056;28;20439;-60
2021/03/16 09:11:42;;;;;;;3.90;0.82;;;23.40;29.40;;;;;;5025448;28;20048;-61
2021/03/16 09:14:28;;;;;;;1.58;0.43;;;23.50;29.40;;;;;;5017090;28;20080;-62
2021/03/16 09:17:12;;;;;;;1.02;0.55;;;23.50;29.50;;;;;;5033723;28;20076;-59
2021/03/16 09:20:06;;;;;;;;;;;23.50;29.50;;;;;;5034354;28;20422;-60
2021/03/16 09:23:00;;;;;;;1.05;0.40;;;23.50;29.50;;;;;;5023551;28;19931;-62
2021/03/16 09:25:46;;;;;;;2.78;0.65;;;23.50;29.50;;;;;;5028471;28;20041;-61
2021/03/16 09:28:32;;;;;;;1.80;0.90;;;23.60;29.60;;;;;;5024660;28;20079;-61
2021/03/16 09:31:20;;;;;;;2.58;0.90;;;23.60;29.60;;;;;;5031996;28;20416;-61
2021/03/16 09:34:06;;;;;;;1.00;0.40;;;23.60;29.60;;;;;;5034313;28;20048;-61
2021/03/16 09:37:07;;;;;;;1.75;0.40;;;23.60;29.60;;;;;;5034794;28;20091;-61
2021/03/16 09:40:00;;;;;;;1.50;0.40;;;23.60;29.50;;;;;;5016622;28;20038;-61
2021/03/16 09:42:48;;;;;;;2.15;0.70;;;23.60;29.50;;;;;;5013869;28;20450;-65
2021/03/16 09:45:18;;;;;;;1.75;0.63;;;23.60;29.50;;;;;;5017722;28;20357;-62
2021/03/16 09:47:45;;;;;;;1.73;0.70;;;23.60;29.40;;;;;;5030392;28;20416;-64
2021/03/16 09:50:20;;;;;;;1.55;0.60;;;23.70;29.50;;;;;;5030178;28;20034;-61
2021/03/16 09:52:58;;;;;;;3.25;0.77;;;23.70;29.60;;;;;;5023110;28;20026;-61
2021/03/16 09:55:25;;;;;;;1.52;0.80;;;23.80;29.50;;;;;;5027779;28;20348;-63
2021/03/16 09:57:58;;;;;;;1.58;0.63;;;23.80;29.40;;;;;;5030202;28;20048;-63
2021/03/16 10:00:26;;;;;;;1.80;0.77;;;23.80;29.30;;;;;;5032960;28;20371;-62
2021/03/16 10:03:03;;;;;;;1.48;0.60;;;23.80;29.20;;;;;;5035883;28;20124;-64
2021/03/16 10:05:29;;;;;;;0.75;0.40;;;23.80;29.00;;;;;;5029311;28;20460;-62
2021/03/16 10:07:55;;;;;;;2.53;0.70;;;23.80;29.00;;;;;;5014823;28;20408;-63
2021/03/16 10:10:26;;;;;;;3.50;0.77;;;23.70;28.90;;;;;;5031899;28;20037;-63
2021/03/16 10:12:54;;;;;;;2.08;0.77;;;23.80;28.80;;;;;;5032369;28;20361;-60
2021/03/16 10:15:39;;;;;;;1.55;0.50;;;23.80;28.70;;;;;;5028259;28;20048;-61
2021/03/16 10:18:08;;;;;;;1.40;0.60;;;23.80;28.60;;;;;;5031599;28;20061;-63
2021/03/16 10:20:40;;;;;;;1.67;0.52;;;23.80;28.70;;;;;;5034394;28;20111;-62
2021/03/16 10:23:09;;;;;;;1.60;0.60;;;23.70;28.60;;;;;;5031513;28;20033;-62
2021/03/16 10:25:36;;;;;;;2.00;0.73;;;23.70;28.60;;;;;;5031502;28;20441;-62
2021/03/16 10:28:07;;;;;;;2.08;0.55;;;23.70;28.60;;;;;;5021783;28;20383;-62
2021/03/16 10:30:43;;;;;;;2.08;0.70;;;23.60;28.50;;;;;;5025455;28;20098;-62
2021/03/16 10:33:10;;;;;;;1.38;0.55;;;23.60;28.50;;;;;;5021553;28;20121;-62
2021/03/16 10:35:38;;;;;;;1.13;0.52;;;23.60;28.50;;;;;;4997311;28;20337;-62
2021/03/16 10:38:05;;;;;;;1.63;0.68;;;23.60;28.50;;;;;;5031411;28;20034;-62
2021/03/16 10:40:33;;;;;;;2.13;0.77;;;23.50;28.50;;;;;;5031871;28;20055;-63
2021/03/16 10:42:59;;;;;;;1.65;0.50;;;23.50;28.50;;;;;;5034679;28;20037;-61
2021/03/16 10:45:26;;;;;;;0.98;0.40;;;23.50;28.50;;;;;;5031409;28;20167;-61
2021/03/16 10:47:52;;;;;;;2.05;0.85;;;23.50;28.50;;;;;;5035610;28;20395;-63
2021/03/16 10:50:18;;;;;;;1.95;0.60;;;23.40;28.50;;;;;;5031631;28;20025;-63
2021/03/16 10:52:44;;;;;;;0.95;0.40;;;23.40;28.50;;;;;;5026328;28;20025;-61
2021/03/16 10:55:10;;;;;;;2.03;0.70;;;23.40;28.50;;;;;;5035641;28;20025;-60
2021/03/16 10:57:36;;;;;;;3.65;0.70;;;23.40;28.50;;;;;;5030807;28;20038;-61
2021/03/16 11:00:05;;;;;;;0.93;0.40;;;23.40;28.40;;;;;;5031013;28;20460;-62
2021/03/16 11:02:31;;;;;;;1.30;0.50;;;23.30;28.40;;;;;;5016454;28;20033;-62
2021/03/16 11:04:57;;;;;;;1.83;0.45;;;23.30;28.40;;;;;;5021195;28;20041;-60
2021/03/16 11:07:23;;;;;;;1.20;0.50;;;23.30;28.40;;;;;;5033952;28;20036;-61
2021/03/16 11:09:49;;;;;;;0.82;0.40;;;23.30;28.50;;;;;;5033937;28;20072;-62
2021/03/16 11:12:16;;;;;;;1.15;0.52;;;23.30;28.40;;;;;;5018875;28;20068;-61
2021/03/16 11:14:44;;;;;;;3.20;1.02;;;23.30;28.40;;;;;;5023158;28;20034;-58
2021/03/16 11:17:10;;;;;;;3.00;0.40;;;23.30;28.40;;;;;;5033612;28;20342;-61
2021/03/16 11:19:36;;;;;;;1.05;0.50;;;23.30;28.50;;;;;;5030999;28;20113;-63
2021/03/16 11:22:02;;;;;;;1.20;0.50;;;23.20;28.40;;;;;;5035003;28;20029;-61
2021/03/16 11:24:27;;;;;;;1.52;0.52;;;23.20;28.40;;;;;;5030306;28;20061;-59
2021/03/16 11:26:53;;;;;;;1.73;0.57;;;23.20;28.40;;;;;;5029323;28;20101;-64
2021/03/16 11:29:20;;;;;;;3.03;0.88;;;23.20;28.40;;;;;;5031721;28;20357;-58
2021/03/16 11:31:47;;;;;;;1.42;0.45;;;23.20;28.40;;;;;;5031297;28;20024;-53
2021/03/16 11:34:31;;;;;;;3.60;1.13;;;23.20;28.40;;;;;;5032630;28;20459;-59
2021/03/16 11:37:15;;;;;;;1.88;0.57;;;23.20;28.50;;;;;;5034716;28;20091;-59
2021/03/16 11:40:00;;;;;;;4.95;1.02;;;23.10;28.50;;;;;;5035028;28;20107;-56
2021/03/16 11:42:44;;;;;;;8.73;1.25;;;23.20;28.60;;;;;;5023762;28;20452;-56
2021/03/16 11:45:28;;;;;;;7.88;1.05;;;23.20;28.70;;;;;;5026847;28;20056;-59
2021/03/16 11:48:12;;;;;;;7.47;1.63;;;23.20;28.70;;;;;;5032465;28;20103;-57
2021/03/16 11:50:56;;;;;;;4.07;1.05;;;23.20;28.70;;;;;;5021926;28;20116;-56
2021/03/16 11:53:40;;;;;;;2.83;1.15;;;23.20;28.70;;;;;;5034320;28;20748;-54
2021/03/16 11:56:26;;;;;;;3.30;1.00;;;23.20;28.70;;;;;;5026021;28;20136;-58
2021/03/16 11:59:10;;;;;;;4.10;1.40;;;23.20;28.70;;;;;;5019652;28;20198;-60
2021/03/16 12:01:55;;;;;;;5.20;1.30;;;23.20;28.70;;;;;;5023538;28;20192;-54
2021/03/16 12:04:39;;;;;;;6.60;1.10;;;23.20;28.70;;;;;;5026540;28;20451;-61
2021/03/16 12:07:23;;;;;;;3.55;1.00;;;23.20;28.80;;;;;;5035776;28;20040;-57
2021/03/16 12:10:08;;;;;;;6.50;1.20;;;23.20;29.00;;;;;;5035253;28;20059;-60
2021/03/16 12:12:52;;;;;;;3.17;0.90;;;23.30;29.20;;;;;;5030957;28;20044;-58
2021/03/16 12:15:36;;;;;;;3.78;1.00;;;23.30;29.30;;;;;;5032860;28;20052;-62
2021/03/16 12:18:20;;;;;;;3.45;1.00;;;23.30;29.30;;;;;;5038239;28;20142;-60
2021/03/16 12:21:05;;;;;;;3.00;1.10;;;23.30;29.30;;;;;;5035056;28;20486;-61
2021/03/16 12:23:49;;;;;;;2.80;0.90;;;23.30;29.20;;;;;;5035365;28;20088;-56
2021/03/16 12:26:33;;;;;;;2.35;0.90;;;23.30;29.20;;;;;;5031287;28;20075;-55
2021/03/16 12:29:17;;;;;;;2.47;0.70;;;23.30;29.20;;;;;;5026907;28;20124;-56
2021/03/16 12:32:02;;;;;;;;;;;23.30;29.20;;;;;;5029819;28;20499;-57
2021/03/16 12:34:46;;;;;;;1.27;0.60;;;23.30;29.10;;;;;;5033324;28;19920;-59
2021/03/16 12:37:31;;;;;;;2.95;1.05;;;23.30;29.10;;;;;;5032265;28;20152;-61
2021/03/16 12:40:15;;;;;;;6.05;1.13;;;23.30;29.10;;;;;;5029953;28;20044;-62
2021/03/16 12:43:00;;;;;;;7.43;1.70;;;23.30;29.10;;;;;;5033184;28;20125;-62
2021/03/16 12:45:44;;;;;;;7.30;2.10;;;23.40;29.10;;;;;;5030877;28;20045;-60
2021/03/16 12:48:29;;;;;;;5.25;1.48;;;23.30;29.10;;;;;;5031854;28;20119;-60
2021/03/16 12:51:12;;;;;;;7.75;1.48;;;23.40;29.10;;;;;;5032196;28;20119;-64
2021/03/16 12:53:57;;;;;;;5.95;1.38;;;23.40;29.10;;;;;;5027105;28;20737;-58
2021/03/16 12:56:41;;;;;;;10.60;1.77;;;23.40;29.10;;;;;;5031018;28;20111;-59
2021/03/16 12:59:25;;;;;;;7.85;1.58;;;23.40;29.10;;;;;;5028399;28;20058;-56
2021/03/16 13:02:10;;;;;;;6.28;1.50;;;23.40;29.10;;;;;;5029017;28;20358;-60
2021/03/16 13:04:54;;;;;;;;;;;23.40;29.10;;;;;;5029115;28;20045;-57
2021/03/16 13:07:38;;;;;;;5.47;1.30;;;23.40;29.20;;;;;;5022741;28;20336;-54
2021/03/16 13:10:24;;;;;;;4.63;1.50;;;23.40;29.10;;;;;;5027062;28;20076;-60
2021/03/16 13:13:08;;;;;;;3.50;1.00;;;23.40;29.00;;;;;;5017580;28;20056;-60
2021/03/16 13:15:53;;;;;;;3.78;0.90;;;23.40;29.00;;;;;;5029089;28;20052;-61
2021/03/16 13:18:38;;;;;;;;;;;23.40;28.90;;;;;;5017100;28;20445;-64
2021/03/16 13:21:25;;;;;;;3.03;0.88;;;23.40;28.90;;;;;;5030774;28;20000;-58
2021/03/16 13:24:09;;;;;;;3.63;1.00;;;23.30;28.90;;;;;;5035006;28;20049;-58
2021/03/16 13:26:54;;;;;;;5.22;0.90;;;23.30;28.90;;;;;;5031376;28;20107;-57
2021/03/16 13:29:38;;;;;;;;;;;23.30;29.00;;;;;;5025170;28;20033;-59
2021/03/16 13:32:23;;;;;;;2.38;0.80;;;23.30;29.10;;;;;;5031173;28;19978;-63
2021/03/16 13:35:08;;;;;;;;;;;23.30;29.20;;;;;;5032963;28;20068;-64
2021/03/16 13:37:53;;;;;;;1.98;0.57;;;23.30;29.20;;;;;;5031617;28;20367;-61
2021/03/16 13:40:38;;;;;;;2.42;0.57;;;23.30;29.30;;;;;;5028533;28;20459;-63
2021/03/16 13:43:22;;;;;;;2.03;0.70;;;23.30;29.30;;;;;;5031001;28;20114;-52
2021/03/16 13:46:07;;;;;;;5.03;0.80;;;23.30;29.40;;;;;;5028176;28;20076;-52
2021/03/16 13:48:52;;;;;;;3.75;0.77;;;23.30;29.40;;;;;;5030261;28;20123;-56
2021/03/16 13:51:37;;;;;;;2.88;0.90;;;23.30;29.50;;;;;;5027268;28;20376;-50
2021/03/16 13:54:22;;;;;;;4.07;0.70;;;23.30;29.70;;;;;;5033587;28;20040;-56
2021/03/16 13:57:07;;;;;;;6.18;0.82;;;23.40;29.90;;;;;;5029956;28;20052;-63
2021/03/16 13:59:51;;;;;;;;;;;23.40;30.00;;;;;;5027697;28;20044;-58
2021/03/16 14:02:39;;;;;;;3.22;0.63;;;23.40;30.00;;;;;;5030115;28;19975;-59